sensor_id;sensor_type;location;lat;lon;timestamp;P1;durP1;ratioP1;P2;durP2;ratioP2
30743;SDS011;17486;46.738;7.622;2023-11-21T00:00:33;5.93;;;3.67;;
30743;SDS011;17486;46.738;7.622;2023-11-21T00:02:59;6.72;;;3.60;;
30743;SDS011;17486;46.738;7.622;2023-11-21T00:05:24;7.68;;;3.58;;
30743;SDS011;17486;46.738;7.622;2023-11-21T00:07:50;7.25;;;3.65;;
30743;SDS011;17486;46.738;7.622;2023-11-21T00:10:16;24.40;;;17.25;;
30743;SDS011;17486;46.738;7.622;2023-11-21T00:12:41;92.35;;;62.22;;
30743;SDS011;17486;46.738;7.622;2023-11-21T00:15:07;121.68;;;81.25;;
30743;SDS011;17486;46.738;7.622;2023-11-21T00:17:39;63.17;;;41.80;;
30743;SDS011;17486;46.738;7.622;2023-11-21T00:20:05;24.08;;;16.73;;
30743;SDS011;17486;46.738;7.622;2023-11-21T00:22:35;10.02;;;6.38;;
30743;SDS011;17486;46.738;7.622;2023-11-21T00:25:01;8.48;;;4.50;;
30743;SDS011;17486;46.738;7.622;2023-11-21T00:27:28;7.22;;;3.33;;
30743;SDS011;17486;46.738;7.622;2023-11-21T00:29:53;6.90;;;3.55;;
30743;SDS011;17486;46.738;7.622;2023-11-21T00:32:19;6.18;;;2.92;;
30743;SDS011;17486;46.738;7.622;2023-11-21T00:34:44;4.85;;;3.08;;
30743;SDS011;17486;46.738;7.622;2023-11-21T00:37:10;6.95;;;3.33;;
30743;SDS011;17486;46.738;7.622;2023-11-21T00:39:35;5.53;;;2.97;;
30743;SDS011;17486;46.738;7.622;2023-11-21T00:42:01;4.97;;;2.72;;
30743;SDS011;17486;46.738;7.622;2023-11-21T00:44:26;4.03;;;2.40;;
30743;SDS011;17486;46.738;7.622;2023-11-21T00:46:51;5.38;;;2.72;;
30743;SDS011;17486;46.738;7.622;2023-11-21T00:49:17;5.43;;;2.50;;
30743;SDS011;17486;46.738;7.622;2023-11-21T00:51:42;4.85;;;2.85;;
30743;SDS011;17486;46.738;7.622;2023-11-21T00:54:08;4.20;;;2.63;;
30743;SDS011;17486;46.738;7.622;2023-11-21T00:56:33;5.57;;;2.92;;
30743;SDS011;17486;46.738;7.622;2023-11-21T00:58:59;4.40;;;2.78;;
30743;SDS011;17486;46.738;7.622;2023-11-21T01:01:24;4.88;;;2.47;;
30743;SDS011;17486;46.738;7.622;2023-11-21T01:03:50;6.43;;;2.90;;
30743;SDS011;17486;46.738;7.622;2023-11-21T01:06:16;4.05;;;2.53;;
30743;SDS011;17486;46.738;7.622;2023-11-21T01:08:41;3.75;;;2.25;;
30743;SDS011;17486;46.738;7.622;2023-11-21T01:11:08;4.07;;;2.80;;
30743;SDS011;17486;46.738;7.622;2023-11-21T01:13:35;4.10;;;2.38;;
30743;SDS011;17486;46.738;7.622;2023-11-21T01:16:00;5.10;;;3.08;;
30743;SDS011;17486;46.738;7.622;2023-11-21T01:18:26;7.95;;;2.78;;
30743;SDS011;17486;46.738;7.622;2023-11-21T01:20:51;6.68;;;2.95;;
30743;SDS011;17486;46.738;7.622;2023-11-21T01:23:18;6.25;;;2.70;;
30743;SDS011;17486;46.738;7.622;2023-11-21T01:25:44;4.88;;;2.60;;
30743;SDS011;17486;46.738;7.622;2023-11-21T01:28:10;4.82;;;2.50;;
30743;SDS011;17486;46.738;7.622;2023-11-21T01:30:37;7.13;;;3.47;;
30743;SDS011;17486;46.738;7.622;2023-11-21T01:33:02;4.93;;;2.85;;
30743;SDS011;17486;46.738;7.622;2023-11-21T01:35:28;4.78;;;2.40;;
30743;SDS011;17486;46.738;7.622;2023-11-21T01:37:53;3.65;;;2.22;;
30743;SDS011;17486;46.738;7.622;2023-11-21T01:40:18;6.03;;;2.55;;
30743;SDS011;17486;46.738;7.622;2023-11-21T01:42:44;5.57;;;2.30;;
30743;SDS011;17486;46.738;7.622;2023-11-21T01:45:11;4.13;;;2.30;;
30743;SDS011;17486;46.738;7.622;2023-11-21T01:47:37;6.18;;;2.20;;
30743;SDS011;17486;46.738;7.622;2023-11-21T01:50:06;7.15;;;2.70;;
30743;SDS011;17486;46.738;7.622;2023-11-21T01:52:33;6.63;;;2.80;;
30743;SDS011;17486;46.738;7.622;2023-11-21T01:55:00;4.70;;;2.45;;
30743;SDS011;17486;46.738;7.622;2023-11-21T01:57:26;8.05;;;2.70;;
30743;SDS011;17486;46.738;7.622;2023-11-21T01:59:52;4.95;;;2.20;;
30743;SDS011;17486;46.738;7.622;2023-11-21T02:02:19;5.78;;;2.25;;
30743;SDS011;17486;46.738;7.622;2023-11-21T02:04:45;5.75;;;2.65;;
30743;SDS011;17486;46.738;7.622;2023-11-21T02:07:11;5.32;;;2.03;;
30743;SDS011;17486;46.738;7.622;2023-11-21T02:09:36;4.25;;;1.98;;
30743;SDS011;17486;46.738;7.622;2023-11-21T02:12:07;6.35;;;2.10;;
30743;SDS011;17486;46.738;7.622;2023-11-21T02:14:34;6.13;;;2.40;;
30743;SDS011;17486;46.738;7.622;2023-11-21T02:16:59;5.63;;;2.60;;
30743;SDS011;17486;46.738;7.622;2023-11-21T02:19:26;7.32;;;2.60;;
30743;SDS011;17486;46.738;7.622;2023-11-21T02:21:52;3.95;;;2.15;;
30743;SDS011;17486;46.738;7.622;2023-11-21T02:24:19;5.60;;;2.05;;
30743;SDS011;17486;46.738;7.622;2023-11-21T02:26:47;4.22;;;2.42;;
30743;SDS011;17486;46.738;7.622;2023-11-21T02:29:16;3.70;;;2.42;;
30743;SDS011;17486;46.738;7.622;2023-11-21T02:31:47;9.00;;;2.60;;
30743;SDS011;17486;46.738;7.622;2023-11-21T02:34:14;3.58;;;2.00;;
30743;SDS011;17486;46.738;7.622;2023-11-21T02:36:40;4.05;;;2.28;;
30743;SDS011;17486;46.738;7.622;2023-11-21T02:39:08;6.55;;;2.53;;
30743;SDS011;17486;46.738;7.622;2023-11-21T02:41:33;4.60;;;2.28;;
30743;SDS011;17486;46.738;7.622;2023-11-21T02:43:59;4.18;;;2.30;;
30743;SDS011;17486;46.738;7.622;2023-11-21T02:46:25;4.75;;;2.30;;
30743;SDS011;17486;46.738;7.622;2023-11-21T02:48:51;7.28;;;2.40;;
30743;SDS011;17486;46.738;7.622;2023-11-21T02:51:19;3.67;;;2.30;;
30743;SDS011;17486;46.738;7.622;2023-11-21T02:53:44;9.55;;;2.60;;
30743;SDS011;17486;46.738;7.622;2023-11-21T02:56:11;6.63;;;2.33;;
30743;SDS011;17486;46.738;7.622;2023-11-21T02:58:37;7.22;;;2.63;;
30743;SDS011;17486;46.738;7.622;2023-11-21T03:01:02;7.43;;;2.40;;
30743;SDS011;17486;46.738;7.622;2023-11-21T03:03:30;3.83;;;2.40;;
30743;SDS011;17486;46.738;7.622;2023-11-21T03:05:56;4.97;;;2.20;;
30743;SDS011;17486;46.738;7.622;2023-11-21T03:08:21;3.58;;;2.10;;
30743;SDS011;17486;46.738;7.622;2023-11-21T03:10:46;4.70;;;2.35;;
30743;SDS011;17486;46.738;7.622;2023-11-21T03:13:12;3.67;;;2.40;;
30743;SDS011;17486;46.738;7.622;2023-11-21T03:15:38;8.25;;;2.90;;
30743;SDS011;17486;46.738;7.622;2023-11-21T03:18:04;3.63;;;2.30;;
30743;SDS011;17486;46.738;7.622;2023-11-21T03:20:30;6.63;;;2.00;;
30743;SDS011;17486;46.738;7.622;2023-11-21T03:22:55;6.07;;;2.50;;
30743;SDS011;17486;46.738;7.622;2023-11-21T03:25:20;5.50;;;2.30;;
30743;SDS011;17486;46.738;7.622;2023-11-21T03:27:48;5.80;;;2.50;;
30743;SDS011;17486;46.738;7.622;2023-11-21T03:30:14;3.25;;;2.00;;
30743;SDS011;17486;46.738;7.622;2023-11-21T03:32:40;3.85;;;2.28;;
30743;SDS011;17486;46.738;7.622;2023-11-21T03:35:05;3.97;;;2.30;;
30743;SDS011;17486;46.738;7.622;2023-11-21T03:37:31;3.13;;;2.03;;
30743;SDS011;17486;46.738;7.622;2023-11-21T03:39:56;4.30;;;1.92;;
30743;SDS011;17486;46.738;7.622;2023-11-21T03:42:22;4.43;;;2.13;;
30743;SDS011;17486;46.738;7.622;2023-11-21T03:44:47;5.15;;;2.17;;
30743;SDS011;17486;46.738;7.622;2023-11-21T03:47:13;3.05;;;1.90;;
30743;SDS011;17486;46.738;7.622;2023-11-21T03:49:38;6.60;;;1.90;;
30743;SDS011;17486;46.738;7.622;2023-11-21T03:52:04;9.00;;;1.98;;
30743;SDS011;17486;46.738;7.622;2023-11-21T03:54:30;3.30;;;2.03;;
30743;SDS011;17486;46.738;7.622;2023-11-21T03:56:55;4.38;;;2.03;;
30743;SDS011;17486;46.738;7.622;2023-11-21T03:59:21;4.93;;;1.95;;
30743;SDS011;17486;46.738;7.622;2023-11-21T04:01:49;3.45;;;1.90;;
30743;SDS011;17486;46.738;7.622;2023-11-21T04:04:15;6.13;;;1.73;;
30743;SDS011;17486;46.738;7.622;2023-11-21T04:06:41;2.72;;;1.67;;
30743;SDS011;17486;46.738;7.622;2023-11-21T04:09:06;3.72;;;1.95;;
30743;SDS011;17486;46.738;7.622;2023-11-21T04:11:32;4.93;;;1.70;;
30743;SDS011;17486;46.738;7.622;2023-11-21T04:13:57;5.45;;;1.98;;
30743;SDS011;17486;46.738;7.622;2023-11-21T04:16:22;4.40;;;1.85;;
30743;SDS011;17486;46.738;7.622;2023-11-21T04:18:48;7.63;;;2.28;;
30743;SDS011;17486;46.738;7.622;2023-11-21T04:21:13;2.70;;;1.80;;
30743;SDS011;17486;46.738;7.622;2023-11-21T04:23:39;5.40;;;1.77;;
30743;SDS011;17486;46.738;7.622;2023-11-21T04:26:05;4.80;;;1.80;;
30743;SDS011;17486;46.738;7.622;2023-11-21T04:28:31;3.80;;;1.75;;
30743;SDS011;17486;46.738;7.622;2023-11-21T04:30:56;5.20;;;1.90;;
30743;SDS011;17486;46.738;7.622;2023-11-21T04:33:21;3.28;;;1.65;;
30743;SDS011;17486;46.738;7.622;2023-11-21T04:35:47;3.10;;;1.98;;
30743;SDS011;17486;46.738;7.622;2023-11-21T04:38:13;4.43;;;1.60;;
30743;SDS011;17486;46.738;7.622;2023-11-21T04:40:38;3.75;;;1.80;;
30743;SDS011;17486;46.738;7.622;2023-11-21T04:43:04;3.90;;;1.40;;
30743;SDS011;17486;46.738;7.622;2023-11-21T04:45:29;4.82;;;1.73;;
30743;SDS011;17486;46.738;7.622;2023-11-21T04:47:55;4.57;;;1.63;;
30743;SDS011;17486;46.738;7.622;2023-11-21T04:50:21;4.32;;;1.35;;
30743;SDS011;17486;46.738;7.622;2023-11-21T04:52:46;3.13;;;1.45;;
30743;SDS011;17486;46.738;7.622;2023-11-21T04:55:12;5.63;;;2.28;;
30743;SDS011;17486;46.738;7.622;2023-11-21T04:57:37;3.10;;;1.90;;
30743;SDS011;17486;46.738;7.622;2023-11-21T05:00:04;2.80;;;1.70;;
30743;SDS011;17486;46.738;7.622;2023-11-21T05:02:31;2.60;;;1.42;;
30743;SDS011;17486;46.738;7.622;2023-11-21T05:04:59;5.70;;;2.05;;
30743;SDS011;17486;46.738;7.622;2023-11-21T05:07:24;4.13;;;1.42;;
30743;SDS011;17486;46.738;7.622;2023-11-21T05:09:54;5.18;;;1.60;;
30743;SDS011;17486;46.738;7.622;2023-11-21T05:12:22;3.70;;;1.75;;
30743;SDS011;17486;46.738;7.622;2023-11-21T05:14:49;3.80;;;1.92;;
30743;SDS011;17486;46.738;7.622;2023-11-21T05:17:15;4.15;;;1.70;;
30743;SDS011;17486;46.738;7.622;2023-11-21T05:19:40;3.80;;;1.73;;
30743;SDS011;17486;46.738;7.622;2023-11-21T05:22:06;5.45;;;1.80;;
30743;SDS011;17486;46.738;7.622;2023-11-21T05:24:31;4.60;;;1.77;;
30743;SDS011;17486;46.738;7.622;2023-11-21T05:26:56;4.43;;;1.60;;
30743;SDS011;17486;46.738;7.622;2023-11-21T05:29:22;3.85;;;1.67;;
30743;SDS011;17486;46.738;7.622;2023-11-21T05:31:48;3.03;;;2.10;;
30743;SDS011;17486;46.738;7.622;2023-11-21T05:34:14;3.88;;;2.15;;
30743;SDS011;17486;46.738;7.622;2023-11-21T05:36:42;5.75;;;2.28;;
30743;SDS011;17486;46.738;7.622;2023-11-21T05:39:08;5.03;;;2.47;;
30743;SDS011;17486;46.738;7.622;2023-11-21T05:41:34;4.45;;;2.17;;
30743;SDS011;17486;46.738;7.622;2023-11-21T05:44:00;4.40;;;2.20;;
30743;SDS011;17486;46.738;7.622;2023-11-21T05:46:26;4.88;;;2.88;;
30743;SDS011;17486;46.738;7.622;2023-11-21T05:48:51;5.80;;;2.55;;
30743;SDS011;17486;46.738;7.622;2023-11-21T05:51:16;4.30;;;1.95;;
30743;SDS011;17486;46.738;7.622;2023-11-21T05:53:42;4.43;;;2.35;;
30743;SDS011;17486;46.738;7.622;2023-11-21T05:56:08;5.00;;;2.80;;
30743;SDS011;17486;46.738;7.622;2023-11-21T05:58:33;3.90;;;2.25;;
30743;SDS011;17486;46.738;7.622;2023-11-21T06:00:59;4.47;;;2.25;;
30743;SDS011;17486;46.738;7.622;2023-11-21T06:03:24;4.93;;;2.00;;
30743;SDS011;17486;46.738;7.622;2023-11-21T06:05:50;4.25;;;1.63;;
30743;SDS011;17486;46.738;7.622;2023-11-21T06:08:15;3.45;;;1.90;;
30743;SDS011;17486;46.738;7.622;2023-11-21T06:10:42;4.03;;;1.90;;
30743;SDS011;17486;46.738;7.622;2023-11-21T06:13:08;5.47;;;2.00;;
30743;SDS011;17486;46.738;7.622;2023-11-21T06:15:35;5.55;;;2.08;;
30743;SDS011;17486;46.738;7.622;2023-11-21T06:18:01;3.67;;;2.03;;
30743;SDS011;17486;46.738;7.622;2023-11-21T06:20:26;7.47;;;2.70;;
30743;SDS011;17486;46.738;7.622;2023-11-21T06:22:53;5.00;;;2.70;;
30743;SDS011;17486;46.738;7.622;2023-11-21T06:25:19;4.75;;;2.40;;
30743;SDS011;17486;46.738;7.622;2023-11-21T06:27:45;4.38;;;2.17;;
30743;SDS011;17486;46.738;7.622;2023-11-21T06:30:13;2.60;;;1.63;;
30743;SDS011;17486;46.738;7.622;2023-11-21T06:32:40;3.40;;;1.80;;
30743;SDS011;17486;46.738;7.622;2023-11-21T06:35:06;4.03;;;1.80;;
30743;SDS011;17486;46.738;7.622;2023-11-21T06:37:33;5.57;;;2.05;;
30743;SDS011;17486;46.738;7.622;2023-11-21T06:39:59;4.80;;;1.90;;
30743;SDS011;17486;46.738;7.622;2023-11-21T06:42:25;6.10;;;2.00;;
30743;SDS011;17486;46.738;7.622;2023-11-21T06:44:51;4.75;;;2.10;;
30743;SDS011;17486;46.738;7.622;2023-11-21T06:47:18;4.78;;;2.10;;
30743;SDS011;17486;46.738;7.622;2023-11-21T06:49:45;4.57;;;2.53;;
30743;SDS011;17486;46.738;7.622;2023-11-21T06:52:13;7.97;;;2.97;;
30743;SDS011;17486;46.738;7.622;2023-11-21T06:54:38;5.50;;;2.90;;
30743;SDS011;17486;46.738;7.622;2023-11-21T06:57:04;4.97;;;2.75;;
30743;SDS011;17486;46.738;7.622;2023-11-21T06:59:30;5.47;;;3.10;;
30743;SDS011;17486;46.738;7.622;2023-11-21T07:01:55;4.82;;;2.85;;
30743;SDS011;17486;46.738;7.622;2023-11-21T07:04:21;7.97;;;2.95;;
30743;SDS011;17486;46.738;7.622;2023-11-21T07:06:46;6.18;;;2.80;;
30743;SDS011;17486;46.738;7.622;2023-11-21T07:09:11;4.07;;;2.72;;
30743;SDS011;17486;46.738;7.622;2023-11-21T07:11:37;5.78;;;2.88;;
30743;SDS011;17486;46.738;7.622;2023-11-21T07:14:05;5.57;;;2.65;;
30743;SDS011;17486;46.738;7.622;2023-11-21T07:16:35;7.43;;;2.78;;
30743;SDS011;17486;46.738;7.622;2023-11-21T07:19:04;6.85;;;2.67;;
30743;SDS011;17486;46.738;7.622;2023-11-21T07:21:33;4.43;;;2.80;;
30743;SDS011;17486;46.738;7.622;2023-11-21T07:24:02;10.68;;;2.70;;
30743;SDS011;17486;46.738;7.622;2023-11-21T07:26:29;4.32;;;2.17;;
30743;SDS011;17486;46.738;7.622;2023-11-21T07:28:55;4.75;;;1.92;;
30743;SDS011;17486;46.738;7.622;2023-11-21T07:31:21;4.00;;;2.13;;
30743;SDS011;17486;46.738;7.622;2023-11-21T07:33:47;2.40;;;1.85;;
30743;SDS011;17486;46.738;7.622;2023-11-21T07:36:13;4.53;;;1.77;;
30743;SDS011;17486;46.738;7.622;2023-11-21T07:38:39;2.33;;;1.80;;
30743;SDS011;17486;46.738;7.622;2023-11-21T07:41:05;5.45;;;1.90;;
30743;SDS011;17486;46.738;7.622;2023-11-21T07:43:32;4.07;;;1.27;;
30743;SDS011;17486;46.738;7.622;2023-11-21T07:46:03;4.70;;;1.65;;
30743;SDS011;17486;46.738;7.622;2023-11-21T07:48:29;5.38;;;1.85;;
30743;SDS011;17486;46.738;7.622;2023-11-21T07:50:58;3.40;;;1.55;;
30743;SDS011;17486;46.738;7.622;2023-11-21T07:53:27;5.65;;;2.10;;
30743;SDS011;17486;46.738;7.622;2023-11-21T07:55:55;4.32;;;1.58;;
30743;SDS011;17486;46.738;7.622;2023-11-21T07:58:21;8.20;;;1.95;;
30743;SDS011;17486;46.738;7.622;2023-11-21T08:00:46;5.38;;;2.30;;
30743;SDS011;17486;46.738;7.622;2023-11-21T08:03:13;5.78;;;2.00;;
30743;SDS011;17486;46.738;7.622;2023-11-21T08:05:39;6.28;;;2.17;;
30743;SDS011;17486;46.738;7.622;2023-11-21T08:08:04;4.38;;;2.33;;
30743;SDS011;17486;46.738;7.622;2023-11-21T08:10:30;4.50;;;2.60;;
30743;SDS011;17486;46.738;7.622;2023-11-21T08:12:55;4.90;;;3.00;;
30743;SDS011;17486;46.738;7.622;2023-11-21T08:15:21;3.83;;;2.70;;
30743;SDS011;17486;46.738;7.622;2023-11-21T08:17:46;6.40;;;2.47;;
30743;SDS011;17486;46.738;7.622;2023-11-21T08:20:13;5.10;;;2.75;;
30743;SDS011;17486;46.738;7.622;2023-11-21T08:22:41;5.25;;;2.20;;
30743;SDS011;17486;46.738;7.622;2023-11-21T08:25:07;4.10;;;1.95;;
30743;SDS011;17486;46.738;7.622;2023-11-21T08:27:33;6.10;;;2.15;;
30743;SDS011;17486;46.738;7.622;2023-11-21T08:29:59;7.22;;;2.05;;
30743;SDS011;17486;46.738;7.622;2023-11-21T08:32:25;4.35;;;2.15;;
30743;SDS011;17486;46.738;7.622;2023-11-21T08:34:51;3.63;;;1.92;;
30743;SDS011;17486;46.738;7.622;2023-11-21T08:37:16;5.05;;;1.88;;
30743;SDS011;17486;46.738;7.622;2023-11-21T08:39:43;4.57;;;1.90;;
30743;SDS011;17486;46.738;7.622;2023-11-21T08:42:10;3.72;;;2.10;;
30743;SDS011;17486;46.738;7.622;2023-11-21T08:44:35;4.13;;;1.90;;
30743;SDS011;17486;46.738;7.622;2023-11-21T08:47:01;4.50;;;2.10;;
30743;SDS011;17486;46.738;7.622;2023-11-21T08:49:27;5.72;;;2.25;;
30743;SDS011;17486;46.738;7.622;2023-11-21T08:51:54;4.30;;;2.20;;
30743;SDS011;17486;46.738;7.622;2023-11-21T08:54:20;3.15;;;1.83;;
30743;SDS011;17486;46.738;7.622;2023-11-21T08:56:46;4.85;;;2.20;;
30743;SDS011;17486;46.738;7.622;2023-11-21T08:59:11;3.33;;;1.95;;
30743;SDS011;17486;46.738;7.622;2023-11-21T09:01:39;5.53;;;1.85;;
30743;SDS011;17486;46.738;7.622;2023-11-21T09:04:05;3.90;;;1.80;;
30743;SDS011;17486;46.738;7.622;2023-11-21T09:06:30;3.67;;;1.88;;
30743;SDS011;17486;46.738;7.622;2023-11-21T09:08:56;6.00;;;2.25;;
30743;SDS011;17486;46.738;7.622;2023-11-21T09:11:21;5.57;;;2.50;;
30743;SDS011;17486;46.738;7.622;2023-11-21T09:13:46;2.50;;;1.85;;
30743;SDS011;17486;46.738;7.622;2023-11-21T09:16:13;4.20;;;2.17;;
30743;SDS011;17486;46.738;7.622;2023-11-21T09:18:40;3.67;;;1.75;;
30743;SDS011;17486;46.738;7.622;2023-11-21T09:21:06;2.53;;;1.90;;
30743;SDS011;17486;46.738;7.622;2023-11-21T09:23:31;5.25;;;2.35;;
30743;SDS011;17486;46.738;7.622;2023-11-21T09:25:56;5.90;;;2.75;;
30743;SDS011;17486;46.738;7.622;2023-11-21T09:28:24;4.85;;;2.40;;
30743;SDS011;17486;46.738;7.622;2023-11-21T09:30:52;5.95;;;2.53;;
30743;SDS011;17486;46.738;7.622;2023-11-21T09:33:18;5.65;;;2.75;;
30743;SDS011;17486;46.738;7.622;2023-11-21T09:35:44;4.05;;;2.20;;
30743;SDS011;17486;46.738;7.622;2023-11-21T09:38:10;4.60;;;2.40;;
30743;SDS011;17486;46.738;7.622;2023-11-21T09:40:35;7.28;;;2.30;;
30743;SDS011;17486;46.738;7.622;2023-11-21T09:43:05;8.13;;;2.53;;
30743;SDS011;17486;46.738;7.622;2023-11-21T09:45:36;4.35;;;2.33;;
30743;SDS011;17486;46.738;7.622;2023-11-21T09:48:03;3.28;;;2.00;;
30743;SDS011;17486;46.738;7.622;2023-11-21T09:50:31;4.40;;;2.42;;
30743;SDS011;17486;46.738;7.622;2023-11-21T09:55:26;5.32;;;2.40;;
30743;SDS011;17486;46.738;7.622;2023-11-21T09:58:00;3.08;;;1.88;;
30743;SDS011;17486;46.738;7.622;2023-11-21T10:00:27;4.60;;;1.95;;
30743;SDS011;17486;46.738;7.622;2023-11-21T10:02:57;4.70;;;2.05;;
30743;SDS011;17486;46.738;7.622;2023-11-21T10:05:23;4.45;;;2.38;;
30743;SDS011;17486;46.738;7.622;2023-11-21T10:07:52;4.60;;;2.15;;
30743;SDS011;17486;46.738;7.622;2023-11-21T10:10:21;6.80;;;2.45;;
30743;SDS011;17486;46.738;7.622;2023-11-21T10:12:50;4.70;;;2.38;;
30743;SDS011;17486;46.738;7.622;2023-11-21T10:15:23;5.38;;;3.47;;
30743;SDS011;17486;46.738;7.622;2023-11-21T10:17:52;8.23;;;4.10;;
30743;SDS011;17486;46.738;7.622;2023-11-21T10:20:20;8.07;;;3.70;;
30743;SDS011;17486;46.738;7.622;2023-11-21T10:22:46;3.83;;;2.60;;
30743;SDS011;17486;46.738;7.622;2023-11-21T10:25:12;3.95;;;2.58;;
30743;SDS011;17486;46.738;7.622;2023-11-21T10:27:41;6.13;;;2.78;;
30743;SDS011;17486;46.738;7.622;2023-11-21T10:30:08;5.20;;;2.80;;
30743;SDS011;17486;46.738;7.622;2023-11-21T10:32:40;4.28;;;2.30;;
30743;SDS011;17486;46.738;7.622;2023-11-21T10:35:09;3.65;;;1.85;;
30743;SDS011;17486;46.738;7.622;2023-11-21T10:37:41;3.13;;;2.08;;
30743;SDS011;17486;46.738;7.622;2023-11-21T10:40:09;4.18;;;2.38;;
30743;SDS011;17486;46.738;7.622;2023-11-21T10:42:38;5.68;;;2.50;;
30743;SDS011;17486;46.738;7.622;2023-11-21T10:45:07;4.65;;;2.00;;
30743;SDS011;17486;46.738;7.622;2023-11-21T10:47:40;4.68;;;2.40;;
30743;SDS011;17486;46.738;7.622;2023-11-21T10:50:07;5.10;;;2.22;;
30743;SDS011;17486;46.738;7.622;2023-11-21T10:52:36;3.10;;;2.28;;
30743;SDS011;17486;46.738;7.622;2023-11-21T10:55:18;3.97;;;2.25;;
30743;SDS011;17486;46.738;7.622;2023-11-21T10:57:49;5.45;;;2.50;;
30743;SDS011;17486;46.738;7.622;2023-11-21T11:00:18;5.55;;;2.50;;
30743;SDS011;17486;46.738;7.622;2023-11-21T11:02:51;5.05;;;2.20;;
30743;SDS011;17486;46.738;7.622;2023-11-21T11:07:45;3.45;;;1.90;;
30743;SDS011;17486;46.738;7.622;2023-11-21T11:10:19;4.05;;;2.35;;
30743;SDS011;17486;46.738;7.622;2023-11-21T11:12:47;5.18;;;2.30;;
30743;SDS011;17486;46.738;7.622;2023-11-21T11:15:13;6.07;;;2.90;;
30743;SDS011;17486;46.738;7.622;2023-11-21T11:17:41;6.22;;;2.92;;
30743;SDS011;17486;46.738;7.622;2023-11-21T11:20:09;6.55;;;3.08;;
30743;SDS011;17486;46.738;7.622;2023-11-21T11:28:15;4.63;;;2.22;;
30743;SDS011;17486;46.738;7.622;2023-11-21T11:30:52;4.90;;;2.00;;
30743;SDS011;17486;46.738;7.622;2023-11-21T11:33:43;3.05;;;1.85;;
30743;SDS011;17486;46.738;7.622;2023-11-21T11:36:29;3.88;;;1.98;;
30743;SDS011;17486;46.738;7.622;2023-11-21T11:38:59;1.90;;;1.50;;
30743;SDS011;17486;46.738;7.622;2023-11-21T11:41:30;5.43;;;1.95;;
30743;SDS011;17486;46.738;7.622;2023-11-21T11:44:00;3.63;;;1.63;;
30743;SDS011;17486;46.738;7.622;2023-11-21T11:46:47;3.05;;;2.20;;
30743;SDS011;17486;46.738;7.622;2023-11-21T11:49:24;2.45;;;1.70;;
30743;SDS011;17486;46.738;7.622;2023-11-21T11:55:17;3.63;;;1.77;;
30743;SDS011;17486;46.738;7.622;2023-11-21T11:57:44;2.88;;;1.58;;
30743;SDS011;17486;46.738;7.622;2023-11-21T12:02:54;3.03;;;1.90;;
30743;SDS011;17486;46.738;7.622;2023-11-21T12:05:22;4.07;;;1.90;;
30743;SDS011;17486;46.738;7.622;2023-11-21T12:10:16;2.00;;;1.73;;
30743;SDS011;17486;46.738;7.622;2023-11-21T12:12:47;2.63;;;1.73;;
30743;SDS011;17486;46.738;7.622;2023-11-21T12:15:13;3.55;;;1.67;;
30743;SDS011;17486;46.738;7.622;2023-11-21T12:17:41;3.47;;;1.58;;
30743;SDS011;17486;46.738;7.622;2023-11-21T12:20:08;2.55;;;1.83;;
30743;SDS011;17486;46.738;7.622;2023-11-21T12:22:41;3.08;;;2.08;;
30743;SDS011;17486;46.738;7.622;2023-11-21T12:25:08;3.17;;;1.90;;
30743;SDS011;17486;46.738;7.622;2023-11-21T12:27:33;4.18;;;2.15;;
30743;SDS011;17486;46.738;7.622;2023-11-21T12:29:58;3.17;;;2.10;;
30743;SDS011;17486;46.738;7.622;2023-11-21T12:32:24;5.28;;;1.90;;
30743;SDS011;17486;46.738;7.622;2023-11-21T12:34:50;3.22;;;1.63;;
30743;SDS011;17486;46.738;7.622;2023-11-21T12:37:16;4.47;;;1.58;;
30743;SDS011;17486;46.738;7.622;2023-11-21T12:39:42;4.70;;;1.92;;
30743;SDS011;17486;46.738;7.622;2023-11-21T12:42:07;2.17;;;1.77;;
30743;SDS011;17486;46.738;7.622;2023-11-21T12:44:34;5.05;;;1.83;;
30743;SDS011;17486;46.738;7.622;2023-11-21T12:47:01;1.95;;;1.50;;
30743;SDS011;17486;46.738;7.622;2023-11-21T12:49:26;1.80;;;1.17;;
30743;SDS011;17486;46.738;7.622;2023-11-21T12:51:53;1.10;;;0.95;;
30743;SDS011;17486;46.738;7.622;2023-11-21T12:54:19;2.55;;;1.08;;
30743;SDS011;17486;46.738;7.622;2023-11-21T12:56:45;2.08;;;0.93;;
30743;SDS011;17486;46.738;7.622;2023-11-21T12:59:13;1.05;;;0.65;;
30743;SDS011;17486;46.738;7.622;2023-11-21T13:01:41;1.00;;;0.60;;
30743;SDS011;17486;46.738;7.622;2023-11-21T13:04:07;1.75;;;0.77;;
30743;SDS011;17486;46.738;7.622;2023-11-21T13:06:35;2.42;;;0.55;;
30743;SDS011;17486;46.738;7.622;2023-11-21T13:09:05;0.90;;;0.68;;
30743;SDS011;17486;46.738;7.622;2023-11-21T13:11:34;1.90;;;0.50;;
30743;SDS011;17486;46.738;7.622;2023-11-21T13:14:01;0.90;;;0.52;;
30743;SDS011;17486;46.738;7.622;2023-11-21T13:16:28;1.10;;;0.70;;
30743;SDS011;17486;46.738;7.622;2023-11-21T13:18:55;1.58;;;0.73;;
30743;SDS011;17486;46.738;7.622;2023-11-21T13:21:20;1.00;;;0.80;;
30743;SDS011;17486;46.738;7.622;2023-11-21T13:23:47;1.27;;;0.93;;
30743;SDS011;17486;46.738;7.622;2023-11-21T13:26:15;0.82;;;0.73;;
30743;SDS011;17486;46.738;7.622;2023-11-21T13:28:41;0.85;;;0.82;;
30743;SDS011;17486;46.738;7.622;2023-11-21T13:31:11;2.53;;;0.75;;
30743;SDS011;17486;46.738;7.622;2023-11-21T13:33:52;1.52;;;0.75;;
30743;SDS011;17486;46.738;7.622;2023-11-21T13:36:23;3.38;;;0.80;;
30743;SDS011;17486;46.738;7.622;2023-11-21T13:38:50;3.38;;;2.92;;
30743;SDS011;17486;46.738;7.622;2023-11-21T13:41:17;5.07;;;3.42;;
30743;SDS011;17486;46.738;7.622;2023-11-21T13:43:43;4.75;;;3.30;;
30743;SDS011;17486;46.738;7.622;2023-11-21T13:46:15;2.63;;;2.42;;
30743;SDS011;17486;46.738;7.622;2023-11-21T13:48:46;2.90;;;1.90;;
30743;SDS011;17486;46.738;7.622;2023-11-21T13:51:24;1.35;;;0.98;;
30743;SDS011;17486;46.738;7.622;2023-11-21T13:54:09;0.85;;;0.63;;
30743;SDS011;17486;46.738;7.622;2023-11-21T13:56:35;0.55;;;0.55;;
30743;SDS011;17486;46.738;7.622;2023-11-21T13:59:02;0.85;;;0.57;;
30743;SDS011;17486;46.738;7.622;2023-11-21T14:01:38;0.50;;;0.50;;
30743;SDS011;17486;46.738;7.622;2023-11-21T14:04:19;0.85;;;0.40;;
30743;SDS011;17486;46.738;7.622;2023-11-21T14:06:59;0.47;;;0.30;;
30743;SDS011;17486;46.738;7.622;2023-11-21T14:09:39;0.38;;;0.30;;
30743;SDS011;17486;46.738;7.622;2023-11-21T14:12:08;1.38;;;0.47;;
30743;SDS011;17486;46.738;7.622;2023-11-21T14:14:35;0.35;;;0.35;;
30743;SDS011;17486;46.738;7.622;2023-11-21T14:17:00;0.40;;;0.40;;
30743;SDS011;17486;46.738;7.622;2023-11-21T14:19:31;0.40;;;0.30;;
30743;SDS011;17486;46.738;7.622;2023-11-21T14:21:58;0.30;;;0.30;;
30743;SDS011;17486;46.738;7.622;2023-11-21T14:24:24;0.82;;;0.70;;
30743;SDS011;17486;46.738;7.622;2023-11-21T14:26:50;0.57;;;0.57;;
30743;SDS011;17486;46.738;7.622;2023-11-21T14:29:17;2.75;;;0.77;;
30743;SDS011;17486;46.738;7.622;2023-11-21T14:31:47;0.52;;;0.52;;
30743;SDS011;17486;46.738;7.622;2023-11-21T14:34:13;0.77;;;0.50;;
30743;SDS011;17486;46.738;7.622;2023-11-21T14:36:40;0.40;;;0.40;;
30743;SDS011;17486;46.738;7.622;2023-11-21T14:39:06;0.57;;;0.57;;
30743;SDS011;17486;46.738;7.622;2023-11-21T14:41:34;0.98;;;0.82;;
30743;SDS011;17486;46.738;7.622;2023-11-21T14:44:03;0.47;;;0.47;;
30743;SDS011;17486;46.738;7.622;2023-11-21T14:46:29;0.93;;;0.40;;
30743;SDS011;17486;46.738;7.622;2023-11-21T14:48:54;0.75;;;0.60;;
30743;SDS011;17486;46.738;7.622;2023-11-21T14:51:55;0.65;;;0.60;;
30743;SDS011;17486;46.738;7.622;2023-11-21T14:54:31;0.65;;;0.65;;
30743;SDS011;17486;46.738;7.622;2023-11-21T14:57:10;2.63;;;1.20;;
30743;SDS011;17486;46.738;7.622;2023-11-21T14:59:42;1.50;;;0.90;;
30743;SDS011;17486;46.738;7.622;2023-11-21T15:02:12;2.42;;;1.20;;
30743;SDS011;17486;46.738;7.622;2023-11-21T15:04:42;1.10;;;1.00;;
30743;SDS011;17486;46.738;7.622;2023-11-21T15:07:08;2.15;;;1.20;;